createdAt,value
2019-02-17T00:00:48.416Z,6.53
2019-02-17T00:03:19.385Z,6.53
2019-02-17T00:37:27.314Z,6.12
2019-02-17T00:39:56.785Z,6.08
2019-02-17T00:42:26.283Z,6.05
2019-02-17T00:44:55.716Z,6.02
2019-02-17T00:47:25.168Z,6.00
2019-02-17T00:49:54.646Z,5.95
2019-02-17T00:52:25.264Z,5.93
2019-02-17T00:54:54.678Z,5.94
2019-02-17T00:57:24.087Z,5.95
2019-02-17T00:59:53.565Z,5.95
2019-02-17T01:02:22.972Z,5.90
2019-02-17T01:04:52.393Z,5.89
2019-02-17T01:07:21.854Z,5.87
2019-02-17T01:09:51.270Z,5.88
2019-02-17T01:12:20.882Z,5.89
2019-02-17T01:14:50.332Z,5.88
2019-02-17T01:17:19.754Z,5.88
2019-02-17T01:19:49.199Z,5.86
2019-02-17T01:22:18.666Z,5.87
2019-02-17T01:24:48.109Z,5.87
2019-02-17T01:27:17.559Z,5.89
2019-02-17T01:29:46.982Z,5.89
2019-02-17T01:32:16.439Z,5.88
2019-02-17T01:34:45.883Z,5.85
2019-02-17T01:37:15.303Z,5.85
2019-02-17T01:39:50.474Z,5.83
2019-02-17T01:42:20.364Z,5.83
2019-02-17T01:44:49.892Z,5.83
2019-02-17T01:47:19.356Z,5.83
2019-02-17T01:49:48.944Z,5.85
2019-02-17T01:52:18.392Z,5.85
2019-02-17T01:54:47.999Z,5.80
2019-02-17T01:57:17.592Z,5.75
2019-02-17T01:59:47.043Z,5.69
2019-02-17T02:02:16.466Z,5.62
2019-02-17T02:04:45.913Z,5.56
2019-02-17T02:07:15.314Z,5.50
2019-02-17T02:09:44.815Z,5.44
2019-02-17T02:12:14.276Z,5.39
2019-02-17T02:14:43.809Z,5.34
2019-02-17T02:17:13.215Z,5.28
2019-02-17T02:19:42.692Z,5.24
2019-02-17T02:22:13.216Z,5.13
2019-02-17T02:24:42.697Z,5.13
2019-02-17T02:27:12.118Z,5.15
2019-02-17T02:29:41.686Z,5.15
2019-02-17T02:32:11.092Z,5.12
2019-02-17T02:34:41.720Z,5.08
2019-02-17T02:37:11.149Z,5.04
2019-02-17T02:39:40.600Z,5.01
2019-02-17T02:42:10.130Z,4.97
2019-02-17T02:44:39.604Z,4.91
2019-02-17T02:47:09.011Z,4.81
2019-02-17T02:49:38.480Z,4.74
2019-02-17T02:52:07.964Z,4.69
2019-02-17T02:54:37.366Z,4.65
2019-02-17T02:57:06.818Z,4.60
2019-02-17T02:59:36.294Z,4.56
2019-02-17T03:02:05.697Z,4.52
2019-02-17T03:04:35.148Z,4.48
2019-02-17T03:07:04.613Z,4.47
2019-02-17T03:09:34.072Z,4.47
2019-02-17T03:12:04.304Z,4.46
2019-02-17T03:14:33.770Z,4.45
2019-02-17T03:17:03.189Z,4.41
2019-02-17T03:19:32.688Z,4.39
2019-02-17T03:22:02.175Z,4.34
2019-02-17T03:24:31.648Z,4.29
2019-02-17T03:27:02.219Z,4.24
2019-02-17T03:29:31.757Z,4.19
2019-02-17T03:32:01.214Z,4.14
2019-02-17T03:34:30.660Z,4.06
2019-02-17T03:37:01.083Z,3.89
2019-02-17T03:39:30.488Z,3.89
2019-02-17T03:42:00.326Z,3.92
2019-02-17T03:44:29.786Z,3.90
2019-02-17T03:46:59.238Z,3.89
2019-02-17T03:49:29.618Z,3.86
2019-02-17T03:51:59.065Z,3.86
2019-02-17T03:54:28.540Z,3.85
2019-02-17T03:56:57.940Z,3.82
2019-02-17T03:59:27.344Z,3.78
2019-02-17T04:01:56.857Z,3.73
2019-02-17T04:04:26.258Z,3.71
2019-02-17T04:06:55.689Z,3.69
2019-02-17T04:09:25.155Z,3.69
2019-02-17T04:11:54.566Z,3.68
2019-02-17T04:14:24.015Z,3.68
2019-02-17T04:16:53.488Z,3.67
2019-02-17T04:19:22.951Z,3.63
2019-02-17T04:21:52.355Z,3.60
2019-02-17T04:24:21.807Z,3.56
2019-02-17T04:26:51.260Z,3.55
2019-02-17T04:29:20.680Z,3.54
2019-02-17T04:31:50.122Z,3.53
2019-02-17T04:34:20.591Z,3.45
2019-02-17T04:36:50.141Z,3.39
2019-02-17T04:39:19.621Z,3.38
2019-02-17T04:41:49.084Z,3.39
2019-02-17T04:44:18.483Z,3.38
2019-02-17T04:46:47.950Z,3.38
2019-02-17T04:49:17.396Z,3.34
2019-02-17T04:51:46.871Z,3.33
2019-02-17T04:54:16.405Z,3.30
2019-02-17T04:56:45.848Z,3.28
2019-02-17T04:59:15.300Z,3.26
2019-02-17T05:01:44.718Z,3.25
2019-02-17T05:04:14.176Z,3.25
2019-02-17T05:06:43.585Z,3.24
2019-02-17T05:09:13.144Z,3.23
2019-02-17T05:11:42.656Z,3.22
2019-02-17T05:14:12.097Z,3.22
2019-02-17T05:16:41.909Z,3.25
2019-02-17T05:19:11.366Z,3.26
2019-02-17T05:21:40.772Z,3.29
2019-02-17T05:24:10.293Z,3.31
2019-02-17T05:26:39.746Z,3.36
2019-02-17T05:29:09.221Z,3.39
2019-02-17T05:31:38.661Z,3.41
2019-02-17T05:34:08.124Z,3.43
2019-02-17T05:36:37.572Z,3.44
2019-02-17T05:39:07.210Z,3.45
2019-02-17T05:41:36.650Z,3.52
2019-02-17T05:44:06.065Z,3.57
2019-02-17T05:46:35.789Z,3.62
2019-02-17T05:49:05.211Z,3.65
2019-02-17T05:51:34.696Z,3.67
2019-02-17T05:54:04.359Z,3.69
2019-02-17T05:56:33.830Z,3.72
2019-02-17T05:59:03.270Z,3.75
2019-02-17T06:01:32.692Z,3.81
2019-02-17T06:04:02.166Z,3.85
2019-02-17T06:06:31.614Z,3.91
2019-02-17T06:09:01.065Z,3.96
2019-02-17T06:11:31.949Z,4.00
2019-02-17T06:14:01.465Z,4.03
2019-02-17T06:16:31.004Z,4.05
2019-02-17T06:19:00.407Z,4.07
2019-02-17T06:21:29.847Z,4.09
2019-02-17T06:23:59.371Z,4.13
2019-02-17T06:26:29.897Z,4.15
2019-02-17T06:28:59.371Z,4.20
2019-02-17T06:31:28.777Z,4.24
2019-02-17T06:33:58.204Z,4.28
2019-02-17T06:36:27.682Z,4.28
2019-02-17T06:38:57.367Z,4.28
2019-02-17T06:41:26.813Z,4.28
2019-02-17T06:43:56.259Z,4.28
2019-02-17T06:46:27.372Z,4.30
2019-02-17T06:48:56.792Z,4.33
2019-02-17T06:51:26.201Z,4.36
2019-02-17T06:53:55.756Z,4.40
2019-02-17T06:56:29.582Z,4.42
2019-02-17T06:58:59.004Z,4.46
2019-02-17T07:01:28.749Z,4.51
2019-02-17T07:03:58.162Z,4.55
2019-02-17T07:06:32.184Z,4.60
2019-02-17T07:09:01.605Z,4.67
2019-02-17T07:11:31.422Z,4.74
2019-02-17T07:14:00.833Z,4.77
2019-02-17T07:16:30.306Z,4.80
2019-02-17T07:18:59.734Z,4.84
2019-02-17T07:21:29.183Z,4.91
2019-02-17T07:23:58.672Z,4.99
2019-02-17T07:26:28.096Z,5.06
2019-02-17T07:28:57.560Z,5.12
2019-02-17T07:31:34.680Z,5.16
2019-02-17T07:33:59.132Z,5.21
2019-02-17T07:36:28.609Z,5.26
2019-02-17T07:38:58.065Z,5.35
2019-02-17T07:41:27.523Z,5.46
2019-02-17T07:43:56.928Z,5.55
2019-02-17T07:46:26.401Z,5.66
2019-02-17T07:48:55.810Z,5.78
2019-02-17T07:51:25.279Z,5.90
2019-02-17T07:53:55.654Z,5.99
2019-02-17T07:56:25.131Z,6.09
2019-02-17T07:58:54.584Z,6.18
2019-02-17T08:01:24.037Z,6.28
2019-02-17T08:03:53.588Z,6.38
2019-02-17T08:06:23.228Z,6.50
2019-02-17T08:08:52.631Z,6.58
2019-02-17T08:11:22.165Z,6.63
2019-02-17T08:13:51.698Z,6.68
2019-02-17T08:16:21.163Z,6.70
2019-02-17T08:18:50.626Z,6.73
2019-02-17T08:21:20.039Z,6.76
2019-02-17T08:23:49.457Z,6.78
2019-02-17T08:26:18.924Z,6.83
2019-02-17T08:28:48.382Z,6.87
2019-02-17T08:31:17.842Z,6.93
2019-02-17T08:33:48.756Z,6.97
2019-02-17T08:36:18.206Z,7.04
2019-02-17T08:38:47.628Z,7.13
2019-02-17T08:41:17.109Z,7.24
2019-02-17T08:43:46.564Z,7.35
2019-02-17T08:46:16.004Z,7.45
2019-02-17T08:48:45.406Z,7.55
2019-02-17T08:51:14.818Z,7.67
2019-02-17T08:53:44.284Z,7.78
2019-02-17T08:56:13.811Z,7.90
2019-02-17T08:58:43.230Z,8.00
2019-02-17T09:01:12.660Z,8.08
2019-02-17T09:03:42.178Z,8.16
2019-02-17T09:06:11.627Z,8.23
2019-02-17T09:08:41.077Z,8.28
2019-02-17T09:11:11.098Z,8.35
2019-02-17T09:13:40.854Z,8.44
2019-02-17T09:16:10.307Z,8.53
2019-02-17T09:18:39.777Z,8.63
2019-02-17T09:21:09.365Z,8.72
2019-02-17T09:23:38.914Z,8.80
2019-02-17T09:26:08.417Z,8.88
2019-02-17T09:28:37.863Z,8.97
2019-02-17T09:31:07.352Z,9.04
2019-02-17T09:33:37.808Z,9.14
2019-02-17T09:36:07.230Z,9.24
2019-02-17T09:38:36.693Z,9.37
2019-02-17T09:41:06.093Z,9.48
2019-02-17T09:43:35.540Z,9.58
2019-02-17T09:46:04.961Z,9.68
2019-02-17T09:48:34.511Z,9.78
2019-02-17T09:51:04.396Z,9.87
2019-02-17T09:53:34.293Z,9.99
2019-02-17T09:56:04.472Z,10.08
2019-02-17T09:58:34.023Z,10.19
2019-02-17T10:01:04.385Z,10.30
2019-02-17T10:03:33.916Z,10.39
2019-02-17T10:06:04.440Z,10.47
2019-02-17T10:08:33.998Z,10.56
2019-02-17T10:11:04.774Z,10.64
2019-02-17T10:13:34.517Z,10.74
2019-02-17T10:16:04.387Z,10.84
2019-02-17T10:18:33.925Z,10.95
2019-02-17T10:21:04.554Z,11.06
2019-02-17T10:23:33.980Z,11.15
2019-02-17T10:26:04.442Z,11.27
2019-02-17T10:28:42.136Z,11.36
2019-02-17T10:31:05.216Z,11.46
2019-02-17T10:33:35.120Z,11.57
2019-02-17T10:36:04.584Z,11.65
2019-02-17T10:38:34.114Z,11.72
2019-02-17T10:41:04.329Z,11.80
2019-02-17T10:43:33.847Z,11.93
2019-02-17T10:46:03.268Z,12.04
2019-02-17T10:48:32.787Z,12.15
2019-02-17T10:51:02.419Z,12.26
2019-02-17T10:53:31.989Z,12.31
2019-02-17T10:56:01.945Z,12.39
2019-02-17T10:58:32.009Z,12.47
2019-02-17T11:01:03.024Z,12.56
2019-02-17T11:03:32.533Z,12.60
2019-02-17T11:06:01.959Z,12.65
2019-02-17T11:08:31.494Z,12.72
2019-02-17T11:11:00.914Z,12.75
2019-02-17T11:13:30.333Z,12.81
2019-02-17T11:16:00.078Z,12.88
2019-02-17T11:18:29.768Z,12.95
2019-02-17T11:20:59.687Z,13.01
2019-02-17T11:23:29.191Z,13.09
2019-02-17T11:25:58.635Z,13.14
2019-02-17T11:28:28.135Z,13.18
2019-02-17T11:30:57.616Z,13.20
2019-02-17T11:33:27.328Z,13.22
2019-02-17T11:35:56.761Z,13.26
2019-02-17T11:38:26.279Z,13.29
2019-02-17T11:40:56.834Z,13.32
2019-02-17T11:43:26.523Z,13.36
2019-02-17T11:45:55.955Z,13.42
2019-02-17T11:48:25.462Z,13.48
2019-02-17T11:50:54.903Z,13.52
2019-02-17T11:53:24.422Z,13.57
2019-02-17T11:55:53.840Z,13.65
2019-02-17T11:58:23.315Z,13.74
2019-02-17T12:00:52.792Z,13.80
2019-02-17T12:03:22.566Z,13.88
2019-02-17T12:05:52.290Z,13.93
2019-02-17T12:08:21.787Z,13.97
2019-02-17T12:10:51.300Z,14.04
2019-02-17T12:13:20.734Z,14.07
2019-02-17T12:15:50.191Z,14.11
2019-02-17T12:18:20.245Z,14.14
2019-02-17T12:21:00.219Z,14.19
2019-02-17T12:23:31.727Z,14.24
2019-02-17T12:26:08.583Z,14.27
2019-02-17T12:28:39.764Z,14.33
2019-02-17T12:31:09.667Z,14.41
2019-02-17T12:33:39.691Z,14.44
2019-02-17T12:36:09.289Z,14.47
2019-02-17T12:38:38.862Z,14.53
2019-02-17T12:41:08.321Z,14.62
2019-02-17T12:43:37.929Z,14.66
2019-02-17T12:46:07.641Z,14.76
2019-02-17T12:48:37.059Z,14.76
2019-02-17T12:51:06.878Z,14.78
2019-02-17T12:53:36.385Z,14.82
2019-02-17T12:56:05.901Z,14.86
2019-02-17T12:58:35.415Z,14.88
2019-02-17T13:01:05.479Z,14.92
2019-02-17T13:03:34.931Z,14.95
2019-02-17T13:06:04.538Z,14.95
2019-02-17T13:08:33.952Z,14.94
2019-02-17T13:11:04.608Z,14.94
2019-02-17T13:13:34.055Z,14.95
2019-02-17T13:16:04.581Z,14.95
2019-02-17T13:18:34.022Z,14.98
2019-02-17T13:21:04.473Z,15.00
2019-02-17T13:23:35.075Z,15.00
2019-02-17T13:26:04.746Z,15.01
2019-02-17T13:28:34.174Z,15.00
2019-02-17T13:31:04.606Z,15.01
2019-02-17T13:33:39.218Z,15.02
2019-02-17T13:36:05.372Z,15.05
2019-02-17T13:38:34.933Z,15.08
2019-02-17T13:41:04.646Z,15.12
2019-02-17T13:43:34.477Z,15.13
2019-02-17T13:46:04.324Z,15.13
2019-02-17T13:48:40.871Z,15.14
2019-02-17T13:51:10.279Z,15.12
2019-02-17T13:53:39.874Z,15.12
2019-02-17T13:56:09.514Z,15.13
2019-02-17T13:58:39.026Z,15.14
2019-02-17T14:01:08.457Z,15.15
2019-02-17T14:03:37.964Z,15.16
2019-02-17T14:06:07.539Z,15.18
2019-02-17T14:08:37.621Z,15.17
2019-02-17T14:11:07.146Z,15.17
2019-02-17T14:13:36.552Z,15.16
2019-02-17T14:16:06.166Z,15.13
2019-02-17T14:18:35.612Z,15.12
2019-02-17T14:21:05.260Z,15.04
2019-02-17T14:23:34.715Z,15.04
2019-02-17T14:26:04.485Z,15.05
2019-02-17T14:28:35.493Z,15.00
2019-02-17T14:31:05.050Z,14.98
2019-02-17T14:33:34.568Z,14.95
2019-02-17T14:36:04.628Z,14.91
2019-02-17T14:38:35.081Z,14.90
2019-02-17T14:41:04.677Z,14.86
2019-02-17T14:43:34.104Z,14.82
2019-02-17T14:46:04.715Z,14.82
2019-02-17T14:48:34.131Z,14.80
2019-02-17T14:51:04.408Z,14.77
2019-02-17T14:53:34.021Z,14.72
2019-02-17T14:56:04.587Z,14.66
2019-02-17T14:58:34.084Z,14.63
2019-02-17T15:01:04.479Z,14.59
2019-02-17T15:03:34.000Z,14.52
2019-02-17T15:06:04.444Z,14.48
2019-02-17T15:08:34.184Z,14.44
2019-02-17T15:11:04.584Z,14.38
2019-02-17T15:13:34.023Z,14.35
2019-02-17T15:16:04.441Z,14.33
2019-02-17T15:18:33.946Z,14.31
2019-02-17T15:21:04.543Z,14.27
2019-02-17T15:23:34.000Z,14.21
2019-02-17T15:26:04.527Z,14.16
2019-02-17T15:28:33.962Z,14.12
2019-02-17T15:31:04.523Z,14.05
2019-02-17T15:33:34.174Z,14.01
2019-02-17T15:36:04.526Z,13.94
2019-02-17T15:38:34.047Z,13.88
2019-02-17T15:41:04.544Z,13.83
2019-02-17T15:43:34.095Z,13.77
2019-02-17T15:46:04.496Z,13.69
2019-02-17T15:48:34.086Z,13.59
2019-02-17T15:51:06.743Z,13.51
2019-02-17T15:53:35.683Z,13.40
2019-02-17T15:56:05.163Z,13.29
2019-02-17T15:58:34.698Z,13.20
2019-02-17T16:01:05.053Z,13.12
2019-02-17T16:03:34.599Z,13.06
2019-02-17T16:06:04.662Z,13.02
2019-02-17T16:08:35.177Z,12.95
2019-02-17T16:11:04.718Z,12.86
2019-02-17T16:13:34.543Z,12.74
2019-02-17T16:16:04.696Z,12.67
2019-02-17T16:18:34.244Z,12.59
2019-02-17T16:21:04.557Z,12.48
2019-02-17T16:23:33.992Z,12.37
2019-02-17T16:26:03.657Z,12.25
2019-02-17T16:28:33.085Z,12.12
2019-02-17T16:31:02.705Z,12.01
2019-02-17T16:33:32.696Z,11.91
2019-02-17T16:36:02.258Z,11.79
2019-02-17T16:38:31.932Z,11.70
2019-02-17T16:41:01.348Z,11.61
2019-02-17T16:43:30.892Z,11.56
2019-02-17T16:46:00.329Z,11.47
2019-02-17T16:48:30.066Z,11.38
2019-02-17T16:51:00.949Z,11.26
2019-02-17T16:53:31.832Z,11.14
2019-02-17T16:56:01.280Z,11.01
2019-02-17T16:58:30.862Z,10.92
2019-02-17T17:01:00.394Z,10.81
2019-02-17T17:03:29.948Z,10.72
2019-02-17T17:05:59.513Z,10.64
2019-02-17T17:08:29.194Z,10.56
2019-02-17T17:10:58.726Z,10.48
2019-02-17T17:13:28.280Z,10.41
2019-02-17T17:15:57.697Z,10.34
2019-02-17T17:18:27.276Z,10.26
2019-02-17T17:20:56.772Z,10.18
2019-02-17T17:23:26.219Z,10.08
2019-02-17T17:25:55.899Z,10.02
2019-02-17T17:28:25.989Z,9.95
2019-02-17T17:30:56.388Z,9.89
2019-02-17T17:33:25.997Z,9.82
2019-02-17T17:35:55.401Z,9.78
2019-02-17T17:38:25.104Z,9.75
2019-02-17T17:40:54.598Z,9.70
2019-02-17T17:43:24.013Z,9.65
2019-02-17T17:45:53.580Z,9.59
2019-02-17T17:48:23.213Z,9.53
2019-02-17T17:50:52.626Z,9.47
2019-02-17T17:53:22.220Z,9.44
2019-02-17T17:55:51.788Z,9.44
2019-02-17T17:58:21.268Z,9.44
2019-02-17T18:00:50.817Z,9.41
2019-02-17T18:03:20.369Z,9.37
2019-02-17T18:05:49.780Z,9.31
2019-02-17T18:08:19.313Z,9.27
2019-02-17T18:10:48.722Z,9.20
2019-02-17T18:13:18.372Z,9.14
2019-02-17T18:15:47.771Z,9.07
2019-02-17T18:18:18.491Z,9.02
2019-02-17T18:20:47.982Z,8.97
2019-02-17T18:23:18.487Z,8.91
2019-02-17T18:25:48.979Z,8.85
2019-02-17T18:28:18.561Z,8.81
2019-02-17T18:30:48.062Z,8.75
2019-02-17T18:33:18.619Z,8.71
2019-02-17T18:35:48.086Z,8.66
2019-02-17T18:38:17.640Z,8.63
2019-02-17T18:40:47.941Z,8.60
2019-02-17T18:43:17.944Z,8.56
2019-02-17T18:45:47.349Z,8.54
2019-02-17T18:48:17.153Z,8.52
2019-02-17T18:50:46.799Z,8.49
2019-02-17T18:53:16.783Z,8.44
2019-02-17T18:55:47.010Z,8.41
2019-02-17T18:58:16.937Z,8.34
2019-02-17T19:00:46.442Z,8.29
2019-02-17T19:03:15.991Z,8.25
2019-02-17T19:05:46.312Z,8.23
2019-02-17T19:08:16.527Z,8.19
2019-02-17T19:10:45.993Z,8.14
2019-02-17T19:13:15.618Z,8.11
2019-02-17T19:15:45.251Z,8.08
2019-02-17T19:18:14.793Z,8.05
2019-02-17T19:20:44.366Z,8.03
2019-02-17T19:23:13.771Z,7.97
2019-02-17T19:25:43.381Z,7.93
2019-02-17T19:28:12.774Z,7.90
2019-02-17T19:30:42.386Z,7.89
2019-02-17T19:33:11.834Z,7.88
2019-02-17T19:35:42.370Z,7.86
2019-02-17T19:38:12.016Z,7.82
2019-02-17T19:40:41.941Z,7.78
2019-02-17T19:43:11.714Z,7.72
2019-02-17T19:45:41.246Z,7.68
2019-02-17T19:48:10.736Z,7.64
2019-02-17T19:50:40.403Z,7.58
2019-02-17T19:53:10.183Z,7.53
2019-02-17T19:55:39.812Z,7.47
2019-02-17T19:58:09.338Z,7.41
2019-02-17T20:00:38.951Z,7.36
2019-02-17T20:03:10.012Z,7.31
2019-02-17T20:05:59.208Z,7.27
2019-02-17T20:08:29.696Z,7.24
2019-02-17T20:10:59.265Z,7.20
2019-02-17T20:13:28.678Z,7.14
2019-02-17T20:15:58.320Z,7.09
2019-02-17T20:18:27.878Z,7.08
2019-02-17T20:20:57.288Z,7.04
2019-02-17T20:23:26.830Z,6.98
2019-02-17T20:25:57.987Z,6.92
2019-02-17T20:28:40.539Z,6.85
2019-02-17T20:30:59.014Z,6.82
2019-02-17T20:33:28.633Z,6.79
2019-02-17T20:36:02.744Z,6.72
2019-02-17T20:38:29.364Z,6.59
2019-02-17T20:40:59.295Z,6.59
2019-02-17T20:43:28.828Z,6.54
2019-02-17T20:45:58.253Z,6.54
2019-02-17T20:48:27.770Z,6.54
2019-02-17T20:50:57.302Z,6.51
2019-02-17T20:53:26.716Z,6.49
2019-02-17T20:55:56.280Z,6.47
2019-02-17T20:58:25.816Z,6.41
2019-02-17T21:00:55.719Z,6.37
2019-02-17T21:03:25.146Z,6.34
2019-02-17T21:05:54.676Z,6.31
2019-02-17T21:08:24.094Z,6.27
2019-02-17T21:10:54.445Z,6.21
2019-02-17T21:13:24.038Z,6.16
2019-02-17T21:15:53.572Z,6.14
2019-02-17T21:18:23.163Z,6.10
2019-02-17T21:20:52.669Z,6.07
2019-02-17T21:23:22.176Z,6.04
2019-02-17T21:25:51.694Z,6.04
2019-02-17T21:28:21.144Z,6.03
2019-02-17T21:30:50.742Z,6.00
2019-02-17T21:33:20.105Z,5.98
2019-02-17T21:35:49.767Z,5.94
2019-02-17T21:38:19.390Z,5.90
2019-02-17T21:40:48.884Z,5.81
2019-02-17T21:43:20.153Z,5.72
2019-02-17T21:45:49.583Z,5.69
2019-02-17T21:48:19.087Z,5.68
2019-02-17T21:50:48.558Z,5.67
2019-02-17T21:53:20.848Z,5.64
2019-02-17T21:55:49.174Z,5.63
2019-02-17T21:58:18.590Z,5.63
2019-02-17T22:00:48.098Z,5.60
2019-02-17T22:03:17.548Z,5.56
2019-02-17T22:05:47.017Z,5.50
2019-02-17T22:08:16.556Z,5.45
2019-02-17T22:10:45.980Z,5.38
2019-02-17T22:13:15.490Z,5.34
2019-02-17T22:15:44.947Z,5.35
2019-02-17T22:18:14.495Z,5.31
2019-02-17T22:20:43.948Z,5.25
2019-02-17T22:23:13.439Z,5.20
2019-02-17T22:25:42.932Z,5.18
2019-02-17T22:28:12.315Z,5.12
2019-02-17T22:30:41.756Z,5.09
2019-02-17T22:33:11.217Z,5.05
2019-02-17T22:35:40.625Z,5.03
2019-02-17T22:38:10.085Z,5.01
2019-02-17T22:40:39.499Z,4.99
2019-02-17T22:43:08.953Z,4.96
2019-02-17T22:45:38.491Z,4.97
2019-02-17T22:48:07.947Z,4.96
2019-02-17T22:50:37.354Z,4.95
2019-02-17T22:53:06.818Z,4.93
2019-02-17T22:55:36.255Z,4.91
2019-02-17T22:58:05.727Z,4.90
2019-02-17T23:00:45.812Z,4.91
2019-02-17T23:03:15.602Z,4.91
2019-02-17T23:05:45.011Z,4.90
2019-02-17T23:08:14.460Z,4.89
2019-02-17T23:10:43.946Z,4.86
2019-02-17T23:13:13.374Z,4.83
2019-02-17T23:15:42.829Z,4.79
2019-02-17T23:18:12.290Z,4.74
2019-02-17T23:20:42.694Z,4.67
2019-02-17T23:23:12.165Z,4.63
2019-02-17T23:25:41.575Z,4.56
2019-02-17T23:28:11.243Z,4.53
2019-02-17T23:30:40.669Z,4.46
2019-02-17T23:33:10.133Z,4.38
2019-02-17T23:35:39.539Z,4.35
2019-02-17T23:38:08.984Z,4.32
2019-02-17T23:40:38.440Z,4.32
2019-02-17T23:43:07.885Z,4.31
2019-02-17T23:45:37.316Z,4.31
2019-02-17T23:48:06.770Z,4.30
2019-02-17T23:50:36.171Z,4.27
2019-02-17T23:53:05.640Z,4.24
2019-02-17T23:55:35.167Z,4.23
2019-02-17T23:58:04.607Z,4.20
